sensor_id;sensor_type;location;lat;lon;timestamp;P1;durP1;ratioP1;P2;durP2;ratioP2
20727;SDS011;10525;50.154;8.198;2022-12-10T00:01:21;16.97;;;8.70;;
20727;SDS011;10525;50.154;8.198;2022-12-10T00:03:49;24.83;;;10.17;;
20727;SDS011;10525;50.154;8.198;2022-12-10T00:06:17;23.63;;;8.87;;
20727;SDS011;10525;50.154;8.198;2022-12-10T00:08:45;20.50;;;9.80;;
20727;SDS011;10525;50.154;8.198;2022-12-10T00:11:13;23.83;;;9.47;;
20727;SDS011;10525;50.154;8.198;2022-12-10T00:13:42;27.33;;;10.57;;
20727;SDS011;10525;50.154;8.198;2022-12-10T00:16:11;20.20;;;8.60;;
20727;SDS011;10525;50.154;8.198;2022-12-10T00:18:39;22.23;;;10.33;;
20727;SDS011;10525;50.154;8.198;2022-12-10T00:21:07;19.63;;;9.77;;
20727;SDS011;10525;50.154;8.198;2022-12-10T00:23:35;21.47;;;9.80;;
20727;SDS011;10525;50.154;8.198;2022-12-10T00:26:03;27.83;;;11.50;;
20727;SDS011;10525;50.154;8.198;2022-12-10T00:28:29;23.73;;;10.37;;
20727;SDS011;10525;50.154;8.198;2022-12-10T00:31:01;29.90;;;11.50;;
20727;SDS011;10525;50.154;8.198;2022-12-10T00:33:30;23.20;;;11.03;;
20727;SDS011;10525;50.154;8.198;2022-12-10T00:36:00;22.73;;;11.80;;
20727;SDS011;10525;50.154;8.198;2022-12-10T00:38:27;27.00;;;11.30;;
20727;SDS011;10525;50.154;8.198;2022-12-10T00:40:54;25.00;;;10.97;;
20727;SDS011;10525;50.154;8.198;2022-12-10T00:43:21;25.97;;;10.00;;
20727;SDS011;10525;50.154;8.198;2022-12-10T00:45:48;22.87;;;10.43;;
20727;SDS011;10525;50.154;8.198;2022-12-10T00:48:14;22.27;;;10.30;;
20727;SDS011;10525;50.154;8.198;2022-12-10T00:50:42;19.53;;;9.43;;
20727;SDS011;10525;50.154;8.198;2022-12-10T00:53:09;21.40;;;10.13;;
20727;SDS011;10525;50.154;8.198;2022-12-10T00:55:36;25.57;;;9.60;;
20727;SDS011;10525;50.154;8.198;2022-12-10T00:58:02;15.77;;;8.30;;
20727;SDS011;10525;50.154;8.198;2022-12-10T01:00:29;21.80;;;9.73;;
20727;SDS011;10525;50.154;8.198;2022-12-10T01:02:56;15.73;;;7.50;;
20727;SDS011;10525;50.154;8.198;2022-12-10T01:05:24;17.43;;;8.00;;
20727;SDS011;10525;50.154;8.198;2022-12-10T01:07:52;20.03;;;9.33;;
20727;SDS011;10525;50.154;8.198;2022-12-10T01:10:19;23.93;;;8.67;;
20727;SDS011;10525;50.154;8.198;2022-12-10T01:12:45;18.10;;;9.10;;
20727;SDS011;10525;50.154;8.198;2022-12-10T01:15:12;23.57;;;9.70;;
20727;SDS011;10525;50.154;8.198;2022-12-10T01:17:39;23.63;;;9.53;;
20727;SDS011;10525;50.154;8.198;2022-12-10T01:20:06;20.13;;;9.40;;
20727;SDS011;10525;50.154;8.198;2022-12-10T01:22:33;26.70;;;10.80;;
20727;SDS011;10525;50.154;8.198;2022-12-10T01:25:01;28.40;;;10.47;;
20727;SDS011;10525;50.154;8.198;2022-12-10T01:27:28;19.87;;;9.40;;
20727;SDS011;10525;50.154;8.198;2022-12-10T01:29:54;27.10;;;11.10;;
20727;SDS011;10525;50.154;8.198;2022-12-10T01:32:21;23.07;;;10.77;;
20727;SDS011;10525;50.154;8.198;2022-12-10T01:34:48;23.30;;;11.47;;
20727;SDS011;10525;50.154;8.198;2022-12-10T01:37:15;24.17;;;10.30;;
20727;SDS011;10525;50.154;8.198;2022-12-10T01:39:41;26.57;;;10.67;;
20727;SDS011;10525;50.154;8.198;2022-12-10T01:42:10;24.90;;;9.83;;
20727;SDS011;10525;50.154;8.198;2022-12-10T01:45:03;20.37;;;9.77;;
20727;SDS011;10525;50.154;8.198;2022-12-10T01:47:34;26.37;;;10.83;;
20727;SDS011;10525;50.154;8.198;2022-12-10T01:50:01;24.77;;;9.37;;
20727;SDS011;10525;50.154;8.198;2022-12-10T01:52:28;21.43;;;10.10;;
20727;SDS011;10525;50.154;8.198;2022-12-10T01:54:55;19.70;;;9.57;;
20727;SDS011;10525;50.154;8.198;2022-12-10T01:57:24;19.00;;;9.87;;
20727;SDS011;10525;50.154;8.198;2022-12-10T01:59:53;25.47;;;10.93;;
20727;SDS011;10525;50.154;8.198;2022-12-10T02:02:25;16.60;;;8.43;;
20727;SDS011;10525;50.154;8.198;2022-12-10T02:05:05;16.70;;;7.40;;
20727;SDS011;10525;50.154;8.198;2022-12-10T02:07:43;17.77;;;7.97;;
20727;SDS011;10525;50.154;8.198;2022-12-10T02:10:20;22.40;;;8.37;;
20727;SDS011;10525;50.154;8.198;2022-12-10T02:13:00;18.10;;;8.30;;
20727;SDS011;10525;50.154;8.198;2022-12-10T02:15:31;16.83;;;7.90;;
20727;SDS011;10525;50.154;8.198;2022-12-10T02:18:01;18.60;;;9.33;;
20727;SDS011;10525;50.154;8.198;2022-12-10T02:20:34;17.63;;;8.20;;
20727;SDS011;10525;50.154;8.198;2022-12-10T02:23:04;19.77;;;8.13;;
20727;SDS011;10525;50.154;8.198;2022-12-10T02:25:37;15.20;;;8.10;;
20727;SDS011;10525;50.154;8.198;2022-12-10T02:28:10;20.17;;;8.20;;
20727;SDS011;10525;50.154;8.198;2022-12-10T02:30:45;18.70;;;8.00;;
20727;SDS011;10525;50.154;8.198;2022-12-10T02:33:14;15.93;;;7.33;;
20727;SDS011;10525;50.154;8.198;2022-12-10T02:35:43;15.20;;;8.33;;
20727;SDS011;10525;50.154;8.198;2022-12-10T02:38:16;15.70;;;7.63;;
20727;SDS011;10525;50.154;8.198;2022-12-10T02:40:46;23.87;;;8.77;;
20727;SDS011;10525;50.154;8.198;2022-12-10T02:43:16;12.67;;;7.27;;
20727;SDS011;10525;50.154;8.198;2022-12-10T02:45:45;15.90;;;6.60;;
20727;SDS011;10525;50.154;8.198;2022-12-10T02:48:12;16.40;;;7.70;;
20727;SDS011;10525;50.154;8.198;2022-12-10T02:50:40;15.33;;;7.43;;
20727;SDS011;10525;50.154;8.198;2022-12-10T02:53:06;20.90;;;8.47;;
20727;SDS011;10525;50.154;8.198;2022-12-10T02:55:37;18.27;;;8.70;;
20727;SDS011;10525;50.154;8.198;2022-12-10T02:58:19;22.07;;;8.50;;
20727;SDS011;10525;50.154;8.198;2022-12-10T03:00:55;18.80;;;8.33;;
20727;SDS011;10525;50.154;8.198;2022-12-10T03:03:31;15.07;;;7.93;;
20727;SDS011;10525;50.154;8.198;2022-12-10T03:06:05;17.67;;;7.63;;
20727;SDS011;10525;50.154;8.198;2022-12-10T03:08:39;16.77;;;8.93;;
20727;SDS011;10525;50.154;8.198;2022-12-10T03:11:11;16.47;;;8.13;;
20727;SDS011;10525;50.154;8.198;2022-12-10T03:13:41;16.80;;;8.37;;
20727;SDS011;10525;50.154;8.198;2022-12-10T03:16:18;11.77;;;7.30;;
20727;SDS011;10525;50.154;8.198;2022-12-10T03:18:47;17.07;;;6.83;;
20727;SDS011;10525;50.154;8.198;2022-12-10T03:21:16;16.97;;;7.73;;
20727;SDS011;10525;50.154;8.198;2022-12-10T03:23:45;17.57;;;7.73;;
20727;SDS011;10525;50.154;8.198;2022-12-10T03:26:13;15.40;;;7.37;;
20727;SDS011;10525;50.154;8.198;2022-12-10T03:28:41;15.13;;;7.80;;
20727;SDS011;10525;50.154;8.198;2022-12-10T03:31:12;17.30;;;7.73;;
20727;SDS011;10525;50.154;8.198;2022-12-10T03:33:41;9.40;;;5.20;;
20727;SDS011;10525;50.154;8.198;2022-12-10T03:36:09;13.57;;;6.13;;
20727;SDS011;10525;50.154;8.198;2022-12-10T03:38:36;9.27;;;5.97;;
20727;SDS011;10525;50.154;8.198;2022-12-10T03:41:03;14.17;;;7.90;;
20727;SDS011;10525;50.154;8.198;2022-12-10T03:43:30;11.83;;;7.23;;
20727;SDS011;10525;50.154;8.198;2022-12-10T03:45:56;15.27;;;7.60;;
20727;SDS011;10525;50.154;8.198;2022-12-10T03:48:23;17.63;;;8.17;;
20727;SDS011;10525;50.154;8.198;2022-12-10T03:50:51;15.07;;;8.27;;
20727;SDS011;10525;50.154;8.198;2022-12-10T03:53:18;17.20;;;7.70;;
20727;SDS011;10525;50.154;8.198;2022-12-10T03:55:44;15.07;;;8.03;;
20727;SDS011;10525;50.154;8.198;2022-12-10T03:58:11;14.53;;;7.07;;
20727;SDS011;10525;50.154;8.198;2022-12-10T04:00:38;19.53;;;7.97;;
20727;SDS011;10525;50.154;8.198;2022-12-10T04:03:05;17.33;;;8.17;;
20727;SDS011;10525;50.154;8.198;2022-12-10T04:05:32;13.23;;;7.47;;
20727;SDS011;10525;50.154;8.198;2022-12-10T04:08:00;17.83;;;8.13;;
20727;SDS011;10525;50.154;8.198;2022-12-10T04:10:27;24.40;;;8.27;;
20727;SDS011;10525;50.154;8.198;2022-12-10T04:12:53;11.13;;;6.77;;
20727;SDS011;10525;50.154;8.198;2022-12-10T04:15:37;18.40;;;9.03;;
20727;SDS011;10525;50.154;8.198;2022-12-10T04:18:22;15.40;;;6.63;;
20727;SDS011;10525;50.154;8.198;2022-12-10T04:20:49;12.20;;;7.43;;
20727;SDS011;10525;50.154;8.198;2022-12-10T04:23:35;15.03;;;8.00;;
20727;SDS011;10525;50.154;8.198;2022-12-10T04:26:19;19.57;;;8.67;;
20727;SDS011;10525;50.154;8.198;2022-12-10T04:29:14;14.43;;;8.30;;
20727;SDS011;10525;50.154;8.198;2022-12-10T04:31:41;19.57;;;9.00;;
20727;SDS011;10525;50.154;8.198;2022-12-10T04:34:08;17.47;;;8.97;;
20727;SDS011;10525;50.154;8.198;2022-12-10T04:36:34;17.57;;;8.70;;
20727;SDS011;10525;50.154;8.198;2022-12-10T04:39:02;15.70;;;7.50;;
20727;SDS011;10525;50.154;8.198;2022-12-10T04:41:29;16.97;;;8.57;;
20727;SDS011;10525;50.154;8.198;2022-12-10T04:43:56;18.90;;;8.63;;
20727;SDS011;10525;50.154;8.198;2022-12-10T04:46:23;17.57;;;8.33;;
20727;SDS011;10525;50.154;8.198;2022-12-10T04:48:49;16.03;;;7.87;;
20727;SDS011;10525;50.154;8.198;2022-12-10T04:51:16;19.93;;;8.73;;
20727;SDS011;10525;50.154;8.198;2022-12-10T04:53:43;12.70;;;7.33;;
20727;SDS011;10525;50.154;8.198;2022-12-10T04:56:11;19.67;;;9.47;;
20727;SDS011;10525;50.154;8.198;2022-12-10T04:58:37;11.43;;;7.30;;
20727;SDS011;10525;50.154;8.198;2022-12-10T05:01:05;19.07;;;9.00;;
20727;SDS011;10525;50.154;8.198;2022-12-10T05:03:33;20.37;;;8.23;;
20727;SDS011;10525;50.154;8.198;2022-12-10T05:06:00;17.57;;;8.53;;
20727;SDS011;10525;50.154;8.198;2022-12-10T05:08:27;17.90;;;8.73;;
20727;SDS011;10525;50.154;8.198;2022-12-10T05:10:54;15.03;;;8.07;;
20727;SDS011;10525;50.154;8.198;2022-12-10T05:13:22;23.77;;;8.70;;
20727;SDS011;10525;50.154;8.198;2022-12-10T05:15:49;15.33;;;7.23;;
20727;SDS011;10525;50.154;8.198;2022-12-10T05:18:16;16.57;;;8.03;;
20727;SDS011;10525;50.154;8.198;2022-12-10T05:20:42;16.30;;;7.70;;
20727;SDS011;10525;50.154;8.198;2022-12-10T05:23:09;10.57;;;7.00;;
20727;SDS011;10525;50.154;8.198;2022-12-10T05:25:57;11.30;;;6.73;;
20727;SDS011;10525;50.154;8.198;2022-12-10T05:28:26;14.13;;;7.00;;
20727;SDS011;10525;50.154;8.198;2022-12-10T05:30:53;6.93;;;3.63;;
20727;SDS011;10525;50.154;8.198;2022-12-10T05:33:20;10.57;;;6.57;;
20727;SDS011;10525;50.154;8.198;2022-12-10T05:35:53;16.67;;;8.17;;
20727;SDS011;10525;50.154;8.198;2022-12-10T05:38:21;15.57;;;7.30;;
20727;SDS011;10525;50.154;8.198;2022-12-10T05:40:48;13.23;;;7.13;;
20727;SDS011;10525;50.154;8.198;2022-12-10T05:43:15;11.50;;;6.50;;
20727;SDS011;10525;50.154;8.198;2022-12-10T05:45:43;12.13;;;6.87;;
20727;SDS011;10525;50.154;8.198;2022-12-10T05:48:10;14.30;;;7.13;;
20727;SDS011;10525;50.154;8.198;2022-12-10T05:50:38;16.13;;;8.27;;
20727;SDS011;10525;50.154;8.198;2022-12-10T05:53:05;16.43;;;8.07;;
20727;SDS011;10525;50.154;8.198;2022-12-10T05:55:32;16.10;;;8.90;;
20727;SDS011;10525;50.154;8.198;2022-12-10T05:57:59;16.13;;;7.80;;
20727;SDS011;10525;50.154;8.198;2022-12-10T06:00:26;12.90;;;6.87;;
20727;SDS011;10525;50.154;8.198;2022-12-10T06:02:54;18.93;;;7.97;;
20727;SDS011;10525;50.154;8.198;2022-12-10T06:05:21;11.50;;;6.83;;
20727;SDS011;10525;50.154;8.198;2022-12-10T06:07:48;15.73;;;8.00;;
20727;SDS011;10525;50.154;8.198;2022-12-10T06:10:15;12.57;;;7.20;;
20727;SDS011;10525;50.154;8.198;2022-12-10T06:12:41;14.80;;;7.57;;
20727;SDS011;10525;50.154;8.198;2022-12-10T06:15:09;16.23;;;7.70;;
20727;SDS011;10525;50.154;8.198;2022-12-10T06:17:36;12.53;;;7.77;;
20727;SDS011;10525;50.154;8.198;2022-12-10T06:20:04;12.80;;;7.13;;
20727;SDS011;10525;50.154;8.198;2022-12-10T06:22:32;18.23;;;7.23;;
20727;SDS011;10525;50.154;8.198;2022-12-10T06:25:00;15.77;;;7.80;;
20727;SDS011;10525;50.154;8.198;2022-12-10T06:27:28;16.77;;;8.20;;
20727;SDS011;10525;50.154;8.198;2022-12-10T06:29:55;15.10;;;7.67;;
20727;SDS011;10525;50.154;8.198;2022-12-10T06:32:22;16.97;;;8.43;;
20727;SDS011;10525;50.154;8.198;2022-12-10T06:34:49;12.40;;;7.53;;
20727;SDS011;10525;50.154;8.198;2022-12-10T06:37:17;17.60;;;9.03;;
20727;SDS011;10525;50.154;8.198;2022-12-10T06:39:44;15.47;;;8.33;;
20727;SDS011;10525;50.154;8.198;2022-12-10T06:42:11;14.83;;;7.20;;
20727;SDS011;10525;50.154;8.198;2022-12-10T06:44:37;14.57;;;7.87;;
20727;SDS011;10525;50.154;8.198;2022-12-10T06:47:04;15.07;;;8.57;;
20727;SDS011;10525;50.154;8.198;2022-12-10T06:49:31;16.00;;;8.97;;
20727;SDS011;10525;50.154;8.198;2022-12-10T06:51:58;14.80;;;7.40;;
20727;SDS011;10525;50.154;8.198;2022-12-10T06:54:26;16.37;;;8.93;;
20727;SDS011;10525;50.154;8.198;2022-12-10T06:56:52;13.63;;;7.90;;
20727;SDS011;10525;50.154;8.198;2022-12-10T06:59:19;15.83;;;8.13;;
20727;SDS011;10525;50.154;8.198;2022-12-10T07:01:46;14.67;;;7.60;;
20727;SDS011;10525;50.154;8.198;2022-12-10T07:04:13;13.77;;;7.50;;
20727;SDS011;10525;50.154;8.198;2022-12-10T07:06:40;15.77;;;8.27;;
20727;SDS011;10525;50.154;8.198;2022-12-10T07:09:07;16.27;;;7.93;;
20727;SDS011;10525;50.154;8.198;2022-12-10T07:11:36;12.87;;;7.73;;
20727;SDS011;10525;50.154;8.198;2022-12-10T07:14:03;15.43;;;8.13;;
20727;SDS011;10525;50.154;8.198;2022-12-10T07:16:30;10.53;;;6.70;;
20727;SDS011;10525;50.154;8.198;2022-12-10T07:18:58;12.77;;;7.33;;
20727;SDS011;10525;50.154;8.198;2022-12-10T07:21:27;9.67;;;6.77;;
20727;SDS011;10525;50.154;8.198;2022-12-10T07:23:57;14.90;;;7.57;;
20727;SDS011;10525;50.154;8.198;2022-12-10T07:26:25;14.17;;;7.93;;
20727;SDS011;10525;50.154;8.198;2022-12-10T07:28:55;9.57;;;6.43;;
20727;SDS011;10525;50.154;8.198;2022-12-10T07:31:23;14.30;;;7.87;;
20727;SDS011;10525;50.154;8.198;2022-12-10T07:33:50;13.53;;;7.77;;
20727;SDS011;10525;50.154;8.198;2022-12-10T07:36:18;14.63;;;7.17;;
20727;SDS011;10525;50.154;8.198;2022-12-10T07:38:47;15.40;;;8.13;;
20727;SDS011;10525;50.154;8.198;2022-12-10T07:41:14;15.97;;;8.03;;
20727;SDS011;10525;50.154;8.198;2022-12-10T07:43:41;14.07;;;7.00;;
20727;SDS011;10525;50.154;8.198;2022-12-10T07:46:11;17.93;;;7.77;;
20727;SDS011;10525;50.154;8.198;2022-12-10T07:48:40;16.10;;;7.73;;
20727;SDS011;10525;50.154;8.198;2022-12-10T07:51:07;18.80;;;9.47;;
20727;SDS011;10525;50.154;8.198;2022-12-10T07:53:34;19.30;;;8.63;;
20727;SDS011;10525;50.154;8.198;2022-12-10T07:56:02;16.57;;;8.77;;
20727;SDS011;10525;50.154;8.198;2022-12-10T07:58:29;22.43;;;9.00;;
20727;SDS011;10525;50.154;8.198;2022-12-10T08:00:56;16.33;;;8.40;;
20727;SDS011;10525;50.154;8.198;2022-12-10T08:03:24;18.33;;;8.63;;
20727;SDS011;10525;50.154;8.198;2022-12-10T08:06:00;17.27;;;8.07;;
20727;SDS011;10525;50.154;8.198;2022-12-10T08:08:27;13.13;;;6.43;;
20727;SDS011;10525;50.154;8.198;2022-12-10T08:10:53;16.70;;;7.73;;
20727;SDS011;10525;50.154;8.198;2022-12-10T08:13:20;15.60;;;8.90;;
20727;SDS011;10525;50.154;8.198;2022-12-10T08:15:47;20.23;;;9.17;;
20727;SDS011;10525;50.154;8.198;2022-12-10T08:18:13;20.83;;;9.27;;
20727;SDS011;10525;50.154;8.198;2022-12-10T08:20:41;21.87;;;9.77;;
20727;SDS011;10525;50.154;8.198;2022-12-10T08:23:08;18.83;;;8.70;;
20727;SDS011;10525;50.154;8.198;2022-12-10T08:25:35;19.20;;;8.73;;
20727;SDS011;10525;50.154;8.198;2022-12-10T08:28:02;22.47;;;8.13;;
20727;SDS011;10525;50.154;8.198;2022-12-10T08:30:29;16.43;;;8.53;;
20727;SDS011;10525;50.154;8.198;2022-12-10T08:32:56;19.03;;;9.03;;
20727;SDS011;10525;50.154;8.198;2022-12-10T08:35:22;19.80;;;8.70;;
20727;SDS011;10525;50.154;8.198;2022-12-10T08:37:50;15.33;;;8.67;;
20727;SDS011;10525;50.154;8.198;2022-12-10T08:40:17;20.30;;;9.83;;
20727;SDS011;10525;50.154;8.198;2022-12-10T08:42:44;29.53;;;10.77;;
20727;SDS011;10525;50.154;8.198;2022-12-10T08:45:11;16.77;;;8.97;;
20727;SDS011;10525;50.154;8.198;2022-12-10T08:47:37;19.17;;;9.47;;
20727;SDS011;10525;50.154;8.198;2022-12-10T08:50:04;16.50;;;8.40;;
20727;SDS011;10525;50.154;8.198;2022-12-10T08:52:31;16.17;;;7.70;;
20727;SDS011;10525;50.154;8.198;2022-12-10T08:54:59;18.10;;;8.40;;
20727;SDS011;10525;50.154;8.198;2022-12-10T08:57:26;13.10;;;7.50;;
20727;SDS011;10525;50.154;8.198;2022-12-10T08:59:53;14.43;;;7.73;;
20727;SDS011;10525;50.154;8.198;2022-12-10T09:02:19;19.60;;;9.53;;
20727;SDS011;10525;50.154;8.198;2022-12-10T09:04:46;12.60;;;7.57;;
20727;SDS011;10525;50.154;8.198;2022-12-10T09:07:14;16.10;;;7.50;;
20727;SDS011;10525;50.154;8.198;2022-12-10T09:09:41;15.07;;;7.93;;
20727;SDS011;10525;50.154;8.198;2022-12-10T09:12:09;17.40;;;7.80;;
20727;SDS011;10525;50.154;8.198;2022-12-10T09:14:36;15.27;;;8.03;;
20727;SDS011;10525;50.154;8.198;2022-12-10T09:17:05;13.77;;;7.30;;
20727;SDS011;10525;50.154;8.198;2022-12-10T09:19:32;13.57;;;7.37;;
20727;SDS011;10525;50.154;8.198;2022-12-10T09:21:58;15.07;;;7.57;;
20727;SDS011;10525;50.154;8.198;2022-12-10T09:24:25;12.67;;;6.93;;
20727;SDS011;10525;50.154;8.198;2022-12-10T09:26:52;15.00;;;7.50;;
20727;SDS011;10525;50.154;8.198;2022-12-10T09:29:20;17.13;;;8.07;;
20727;SDS011;10525;50.154;8.198;2022-12-10T09:31:49;15.53;;;7.53;;
20727;SDS011;10525;50.154;8.198;2022-12-10T09:34:16;13.03;;;7.33;;
20727;SDS011;10525;50.154;8.198;2022-12-10T09:36:43;13.60;;;7.17;;
20727;SDS011;10525;50.154;8.198;2022-12-10T09:39:10;17.20;;;7.63;;
20727;SDS011;10525;50.154;8.198;2022-12-10T09:41:47;11.73;;;6.97;;
20727;SDS011;10525;50.154;8.198;2022-12-10T09:44:28;12.43;;;6.60;;
20727;SDS011;10525;50.154;8.198;2022-12-10T09:47:06;14.50;;;7.67;;
20727;SDS011;10525;50.154;8.198;2022-12-10T09:49:38;11.30;;;7.17;;
20727;SDS011;10525;50.154;8.198;2022-12-10T09:52:12;11.03;;;6.47;;
20727;SDS011;10525;50.154;8.198;2022-12-10T09:54:41;13.17;;;6.87;;
20727;SDS011;10525;50.154;8.198;2022-12-10T09:57:10;10.47;;;5.93;;
20727;SDS011;10525;50.154;8.198;2022-12-10T09:59:47;13.83;;;6.80;;
20727;SDS011;10525;50.154;8.198;2022-12-10T10:02:19;8.73;;;5.93;;
20727;SDS011;10525;50.154;8.198;2022-12-10T10:04:48;10.27;;;7.17;;
20727;SDS011;10525;50.154;8.198;2022-12-10T10:07:17;10.90;;;5.90;;
20727;SDS011;10525;50.154;8.198;2022-12-10T10:09:47;9.63;;;6.57;;
20727;SDS011;10525;50.154;8.198;2022-12-10T10:12:14;9.10;;;6.00;;
20727;SDS011;10525;50.154;8.198;2022-12-10T10:14:42;11.47;;;6.07;;
20727;SDS011;10525;50.154;8.198;2022-12-10T10:17:12;10.53;;;4.70;;
20727;SDS011;10525;50.154;8.198;2022-12-10T10:19:44;9.90;;;6.00;;
20727;SDS011;10525;50.154;8.198;2022-12-10T10:22:11;9.77;;;5.73;;
20727;SDS011;10525;50.154;8.198;2022-12-10T10:24:39;8.83;;;4.80;;
20727;SDS011;10525;50.154;8.198;2022-12-10T10:27:11;9.57;;;6.13;;
20727;SDS011;10525;50.154;8.198;2022-12-10T10:29:41;11.47;;;5.90;;
20727;SDS011;10525;50.154;8.198;2022-12-10T10:32:17;12.03;;;6.33;;
20727;SDS011;10525;50.154;8.198;2022-12-10T10:34:46;11.23;;;6.03;;
20727;SDS011;10525;50.154;8.198;2022-12-10T10:37:19;8.53;;;5.67;;
20727;SDS011;10525;50.154;8.198;2022-12-10T10:39:47;9.47;;;5.93;;
20727;SDS011;10525;50.154;8.198;2022-12-10T10:42:21;10.60;;;6.17;;
20727;SDS011;10525;50.154;8.198;2022-12-10T10:44:59;8.67;;;6.53;;
20727;SDS011;10525;50.154;8.198;2022-12-10T10:47:29;8.83;;;5.90;;
20727;SDS011;10525;50.154;8.198;2022-12-10T10:49:58;11.53;;;5.80;;
20727;SDS011;10525;50.154;8.198;2022-12-10T10:52:27;8.63;;;5.53;;
20727;SDS011;10525;50.154;8.198;2022-12-10T10:54:55;8.23;;;5.50;;
20727;SDS011;10525;50.154;8.198;2022-12-10T10:57:23;8.17;;;5.13;;
20727;SDS011;10525;50.154;8.198;2022-12-10T10:59:51;8.77;;;5.77;;
20727;SDS011;10525;50.154;8.198;2022-12-10T11:02:21;9.33;;;5.57;;
20727;SDS011;10525;50.154;8.198;2022-12-10T11:04:53;9.43;;;5.00;;
20727;SDS011;10525;50.154;8.198;2022-12-10T11:07:25;7.57;;;5.07;;
20727;SDS011;10525;50.154;8.198;2022-12-10T11:09:58;10.67;;;5.30;;
20727;SDS011;10525;50.154;8.198;2022-12-10T11:12:30;8.43;;;4.93;;
20727;SDS011;10525;50.154;8.198;2022-12-10T11:15:00;10.00;;;5.37;;
20727;SDS011;10525;50.154;8.198;2022-12-10T11:17:28;4.87;;;4.27;;
20727;SDS011;10525;50.154;8.198;2022-12-10T11:19:58;8.60;;;5.47;;
20727;SDS011;10525;50.154;8.198;2022-12-10T11:22:27;7.20;;;4.97;;
20727;SDS011;10525;50.154;8.198;2022-12-10T11:24:55;8.70;;;3.93;;
20727;SDS011;10525;50.154;8.198;2022-12-10T11:27:30;7.33;;;5.10;;
20727;SDS011;10525;50.154;8.198;2022-12-10T11:30:12;10.27;;;5.43;;
20727;SDS011;10525;50.154;8.198;2022-12-10T11:32:52;8.03;;;5.13;;
20727;SDS011;10525;50.154;8.198;2022-12-10T11:35:34;9.13;;;5.67;;
20727;SDS011;10525;50.154;8.198;2022-12-10T11:38:09;7.03;;;5.70;;
20727;SDS011;10525;50.154;8.198;2022-12-10T11:40:45;10.50;;;5.80;;
20727;SDS011;10525;50.154;8.198;2022-12-10T11:43:30;14.13;;;6.47;;
20727;SDS011;10525;50.154;8.198;2022-12-10T11:46:08;9.23;;;6.17;;
20727;SDS011;10525;50.154;8.198;2022-12-10T11:49:00;12.10;;;6.47;;
20727;SDS011;10525;50.154;8.198;2022-12-10T11:51:39;9.80;;;6.53;;
20727;SDS011;10525;50.154;8.198;2022-12-10T11:54:14;10.87;;;6.50;;
20727;SDS011;10525;50.154;8.198;2022-12-10T11:56:59;7.03;;;5.20;;
20727;SDS011;10525;50.154;8.198;2022-12-10T11:59:33;8.30;;;5.67;;
20727;SDS011;10525;50.154;8.198;2022-12-10T12:02:22;8.03;;;5.43;;
20727;SDS011;10525;50.154;8.198;2022-12-10T12:05:14;12.03;;;5.37;;
20727;SDS011;10525;50.154;8.198;2022-12-10T12:07:53;11.80;;;5.93;;
20727;SDS011;10525;50.154;8.198;2022-12-10T12:13:14;9.67;;;5.13;;
20727;SDS011;10525;50.154;8.198;2022-12-10T12:15:44;8.67;;;5.33;;
20727;SDS011;10525;50.154;8.198;2022-12-10T12:18:16;11.17;;;6.37;;
20727;SDS011;10525;50.154;8.198;2022-12-10T12:20:48;5.97;;;4.83;;
20727;SDS011;10525;50.154;8.198;2022-12-10T12:23:21;12.93;;;6.63;;
20727;SDS011;10525;50.154;8.198;2022-12-10T12:25:53;11.93;;;6.43;;
20727;SDS011;10525;50.154;8.198;2022-12-10T12:28:25;9.07;;;5.17;;
20727;SDS011;10525;50.154;8.198;2022-12-10T12:30:58;11.10;;;5.30;;
20727;SDS011;10525;50.154;8.198;2022-12-10T12:33:30;10.67;;;5.93;;
20727;SDS011;10525;50.154;8.198;2022-12-10T12:36:05;7.73;;;4.93;;
20727;SDS011;10525;50.154;8.198;2022-12-10T12:38:37;10.07;;;5.93;;
20727;SDS011;10525;50.154;8.198;2022-12-10T12:41:13;7.10;;;5.20;;
20727;SDS011;10525;50.154;8.198;2022-12-10T12:43:44;7.17;;;4.83;;
20727;SDS011;10525;50.154;8.198;2022-12-10T12:46:18;11.30;;;5.80;;
20727;SDS011;10525;50.154;8.198;2022-12-10T12:48:53;12.47;;;5.67;;
20727;SDS011;10525;50.154;8.198;2022-12-10T12:51:26;8.13;;;4.93;;
20727;SDS011;10525;50.154;8.198;2022-12-10T12:53:56;15.60;;;6.27;;
20727;SDS011;10525;50.154;8.198;2022-12-10T12:56:25;9.13;;;5.53;;
20727;SDS011;10525;50.154;8.198;2022-12-10T12:59:08;7.80;;;5.40;;
20727;SDS011;10525;50.154;8.198;2022-12-10T13:01:43;8.60;;;5.83;;
20727;SDS011;10525;50.154;8.198;2022-12-10T13:04:17;6.37;;;4.70;;
20727;SDS011;10525;50.154;8.198;2022-12-10T13:07:08;12.50;;;5.40;;
20727;SDS011;10525;50.154;8.198;2022-12-10T13:09:44;7.73;;;5.27;;
20727;SDS011;10525;50.154;8.198;2022-12-10T13:15:14;5.87;;;4.87;;
20727;SDS011;10525;50.154;8.198;2022-12-10T13:20:28;9.23;;;5.23;;
20727;SDS011;10525;50.154;8.198;2022-12-10T13:23:00;7.87;;;5.30;;
20727;SDS011;10525;50.154;8.198;2022-12-10T13:25:40;10.33;;;5.43;;
20727;SDS011;10525;50.154;8.198;2022-12-10T13:28:22;12.13;;;5.87;;
20727;SDS011;10525;50.154;8.198;2022-12-10T13:33:49;9.30;;;5.50;;
20727;SDS011;10525;50.154;8.198;2022-12-10T13:36:21;10.50;;;6.07;;
20727;SDS011;10525;50.154;8.198;2022-12-10T13:38:55;9.47;;;6.67;;
20727;SDS011;10525;50.154;8.198;2022-12-10T13:41:39;12.97;;;5.63;;
20727;SDS011;10525;50.154;8.198;2022-12-10T13:44:30;8.40;;;5.20;;
20727;SDS011;10525;50.154;8.198;2022-12-10T13:47:03;8.60;;;5.47;;
20727;SDS011;10525;50.154;8.198;2022-12-10T13:49:34;9.83;;;5.43;;
20727;SDS011;10525;50.154;8.198;2022-12-10T13:52:14;9.90;;;5.67;;
20727;SDS011;10525;50.154;8.198;2022-12-10T13:54:58;13.03;;;7.00;;
20727;SDS011;10525;50.154;8.198;2022-12-10T13:57:37;10.07;;;6.00;;
20727;SDS011;10525;50.154;8.198;2022-12-10T14:00:23;11.03;;;5.80;;
20727;SDS011;10525;50.154;8.198;2022-12-10T14:03:10;9.03;;;5.90;;
20727;SDS011;10525;50.154;8.198;2022-12-10T14:05:58;8.10;;;5.33;;
20727;SDS011;10525;50.154;8.198;2022-12-10T14:08:37;11.20;;;6.20;;
20727;SDS011;10525;50.154;8.198;2022-12-10T14:11:13;11.57;;;5.93;;
20727;SDS011;10525;50.154;8.198;2022-12-10T14:13:49;11.97;;;6.10;;
20727;SDS011;10525;50.154;8.198;2022-12-10T14:16:21;16.27;;;6.10;;
20727;SDS011;10525;50.154;8.198;2022-12-10T14:18:51;12.87;;;7.37;;
20727;SDS011;10525;50.154;8.198;2022-12-10T14:21:20;12.17;;;7.03;;
20727;SDS011;10525;50.154;8.198;2022-12-10T14:23:49;10.03;;;6.27;;
20727;SDS011;10525;50.154;8.198;2022-12-10T14:26:17;14.47;;;7.00;;
20727;SDS011;10525;50.154;8.198;2022-12-10T14:28:48;15.83;;;8.23;;
20727;SDS011;10525;50.154;8.198;2022-12-10T14:31:18;14.43;;;7.70;;
20727;SDS011;10525;50.154;8.198;2022-12-10T14:33:48;10.83;;;6.70;;
20727;SDS011;10525;50.154;8.198;2022-12-10T14:36:16;16.77;;;8.13;;
20727;SDS011;10525;50.154;8.198;2022-12-10T14:38:52;15.97;;;7.37;;
20727;SDS011;10525;50.154;8.198;2022-12-10T14:41:20;12.87;;;7.20;;
20727;SDS011;10525;50.154;8.198;2022-12-10T14:43:50;22.77;;;9.07;;
20727;SDS011;10525;50.154;8.198;2022-12-10T14:46:18;15.27;;;7.97;;
20727;SDS011;10525;50.154;8.198;2022-12-10T14:48:48;15.90;;;7.43;;
20727;SDS011;10525;50.154;8.198;2022-12-10T14:51:18;15.40;;;8.30;;
20727;SDS011;10525;50.154;8.198;2022-12-10T14:53:46;13.13;;;7.17;;
20727;SDS011;10525;50.154;8.198;2022-12-10T14:56:15;13.80;;;6.93;;
20727;SDS011;10525;50.154;8.198;2022-12-10T14:58:49;14.50;;;7.70;;
20727;SDS011;10525;50.154;8.198;2022-12-10T15:01:22;12.80;;;6.73;;
20727;SDS011;10525;50.154;8.198;2022-12-10T15:03:53;14.47;;;8.37;;
20727;SDS011;10525;50.154;8.198;2022-12-10T15:06:21;13.27;;;6.37;;